sensor_id;sensor_type;location;lat;lon;timestamp;pressure;altitude;pressure_sealevel;temperature;humidity
5883;BME280;2967;51.488;6.618;2023-11-21T00:02:50;100777.63;;;11.38;100.00
5883;BME280;2967;51.488;6.618;2023-11-21T00:28:17;100780.88;;;11.68;100.00
5883;BME280;2967;51.488;6.618;2023-11-21T00:33:20;100695.28;;;10.91;100.00
5883;BME280;2967;51.488;6.618;2023-11-21T00:38:23;100768.22;;;11.34;100.00
5883;BME280;2967;51.488;6.618;2023-11-21T00:43:28;100795.03;;;11.54;100.00
5883;BME280;2967;51.488;6.618;2023-11-21T00:48:30;100789.72;;;11.54;100.00
5883;BME280;2967;51.488;6.618;2023-11-21T00:53:33;100797.16;;;11.49;100.00
5883;BME280;2967;51.488;6.618;2023-11-21T00:58:37;100797.69;;;11.54;100.00
5883;BME280;2967;51.488;6.618;2023-11-21T01:03:41;100800.13;;;11.45;100.00
5883;BME280;2967;51.488;6.618;2023-11-21T01:08:44;100700.59;;;11.03;100.00
5883;BME280;2967;51.488;6.618;2023-11-21T01:13:51;100738.53;;;11.29;100.00
5883;BME280;2967;51.488;6.618;2023-11-21T01:18:54;100813.19;;;11.60;100.00
5883;BME280;2967;51.488;6.618;2023-11-21T01:23:57;100814.25;;;11.58;100.00
5883;BME280;2967;51.488;6.618;2023-11-21T01:29:02;100825.50;;;11.74;100.00
5883;BME280;2967;51.488;6.618;2023-11-21T01:34:04;100829.09;;;11.73;100.00
5883;BME280;2967;51.488;6.618;2023-11-21T01:39:07;100823.22;;;11.55;100.00
5883;BME280;2967;51.488;6.618;2023-11-21T01:44:14;100833.94;;;11.54;100.00
5883;BME280;2967;51.488;6.618;2023-11-21T01:49:18;100839.78;;;11.59;100.00
5883;BME280;2967;51.488;6.618;2023-11-21T01:54:22;100823.16;;;11.57;100.00
5883;BME280;2967;51.488;6.618;2023-11-21T01:59:27;100835.66;;;11.67;100.00
5883;BME280;2967;51.488;6.618;2023-11-21T02:04:33;100839.88;;;11.57;100.00
5883;BME280;2967;51.488;6.618;2023-11-21T02:09:37;100842.84;;;11.65;100.00
5883;BME280;2967;51.488;6.618;2023-11-21T02:14:45;100848.06;;;11.67;100.00
5883;BME280;2967;51.488;6.618;2023-11-21T02:19:49;100853.47;;;11.78;100.00
5883;BME280;2967;51.488;6.618;2023-11-21T02:24:54;100851.88;;;11.75;100.00
5883;BME280;2967;51.488;6.618;2023-11-21T02:29:57;100845.13;;;11.32;100.00
5883;BME280;2967;51.488;6.618;2023-11-21T02:35:03;100856.25;;;12.01;100.00
5883;BME280;2967;51.488;6.618;2023-11-21T02:40:11;100835.34;;;11.72;100.00
5883;BME280;2967;51.488;6.618;2023-11-21T02:45:15;100847.00;;;11.82;100.00
5883;BME280;2967;51.488;6.618;2023-11-21T02:50:19;100866.28;;;11.96;100.00
5883;BME280;2967;51.488;6.618;2023-11-21T02:55:23;100808.97;;;11.70;100.00
5883;BME280;2967;51.488;6.618;2023-11-21T03:00:28;100864.72;;;11.94;100.00
5883;BME280;2967;51.488;6.618;2023-11-21T03:05:31;100867.81;;;12.00;100.00
5883;BME280;2967;51.488;6.618;2023-11-21T03:10:38;100816.69;;;11.73;100.00
5883;BME280;2967;51.488;6.618;2023-11-21T03:15:41;100873.22;;;12.11;100.00
5883;BME280;2967;51.488;6.618;2023-11-21T03:33:54;100900.78;;;12.21;100.00
5883;BME280;2967;51.488;6.618;2023-11-21T03:38:57;100901.41;;;12.12;100.00
5883;BME280;2967;51.488;6.618;2023-11-21T03:44:00;100914.13;;;12.45;100.00
5883;BME280;2967;51.488;6.618;2023-11-21T03:49:05;100906.50;;;12.28;100.00
5883;BME280;2967;51.488;6.618;2023-11-21T03:54:09;100910.75;;;12.30;100.00
5883;BME280;2967;51.488;6.618;2023-11-21T03:59:14;100881.16;;;12.24;100.00
5883;BME280;2967;51.488;6.618;2023-11-21T04:04:18;100931.19;;;12.78;100.00
5883;BME280;2967;51.488;6.618;2023-11-21T04:09:22;100930.72;;;12.72;100.00
5883;BME280;2967;51.488;6.618;2023-11-21T04:14:31;100925.47;;;12.59;100.00
5883;BME280;2967;51.488;6.618;2023-11-21T04:19:36;100926.94;;;12.63;100.00
5883;BME280;2967;51.488;6.618;2023-11-21T04:24:39;100925.34;;;12.61;100.00
5883;BME280;2967;51.488;6.618;2023-11-21T04:29:42;100911.44;;;12.57;100.00
5883;BME280;2967;51.488;6.618;2023-11-21T04:34:46;100911.56;;;12.43;100.00
5883;BME280;2967;51.488;6.618;2023-11-21T04:39:49;100938.63;;;12.61;100.00
5883;BME280;2967;51.488;6.618;2023-11-21T04:44:53;100946.47;;;12.62;100.00
5883;BME280;2967;51.488;6.618;2023-11-21T04:49:57;100899.72;;;12.11;100.00
5883;BME280;2967;51.488;6.618;2023-11-21T04:55:01;100955.41;;;12.49;100.00
5883;BME280;2967;51.488;6.618;2023-11-21T05:00:05;100963.91;;;12.41;100.00
5883;BME280;2967;51.488;6.618;2023-11-21T05:05:10;100978.75;;;12.56;100.00
5883;BME280;2967;51.488;6.618;2023-11-21T05:10:13;100878.28;;;12.14;100.00
5883;BME280;2967;51.488;6.618;2023-11-21T05:15:17;100967.06;;;12.71;100.00
5883;BME280;2967;51.488;6.618;2023-11-21T05:20:22;100967.53;;;12.53;100.00
5883;BME280;2967;51.488;6.618;2023-11-21T05:25:25;100990.50;;;12.27;100.00
5883;BME280;2967;51.488;6.618;2023-11-21T05:30:29;100919.25;;;12.10;100.00
5883;BME280;2967;51.488;6.618;2023-11-21T05:35:33;101003.16;;;12.61;100.00
5883;BME280;2967;51.488;6.618;2023-11-21T05:40:35;101019.28;;;12.33;100.00
5883;BME280;2967;51.488;6.618;2023-11-21T05:45:38;100983.41;;;12.03;100.00
5883;BME280;2967;51.488;6.618;2023-11-21T05:50:43;100955.78;;;11.80;100.00
5883;BME280;2967;51.488;6.618;2023-11-21T05:55:46;100972.25;;;11.98;100.00
5883;BME280;2967;51.488;6.618;2023-11-21T06:00:49;101036.38;;;12.29;100.00
5883;BME280;2967;51.488;6.618;2023-11-21T06:06:05;101032.44;;;12.22;100.00
5883;BME280;2967;51.488;6.618;2023-11-21T06:11:40;101055.06;;;12.40;100.00
5883;BME280;2967;51.488;6.618;2023-11-21T06:16:43;101047.72;;;12.31;100.00
5883;BME280;2967;51.488;6.618;2023-11-21T06:21:50;101070.34;;;12.37;100.00
5883;BME280;2967;51.488;6.618;2023-11-21T06:26:53;101004.50;;;12.04;100.00
5883;BME280;2967;51.488;6.618;2023-11-21T06:31:56;101067.78;;;12.35;100.00
5883;BME280;2967;51.488;6.618;2023-11-21T06:37:01;101080.53;;;12.43;100.00
5883;BME280;2967;51.488;6.618;2023-11-21T06:42:04;101092.38;;;12.37;100.00
5883;BME280;2967;51.488;6.618;2023-11-21T06:47:07;100804.59;;;10.52;100.00
5883;BME280;2967;51.488;6.618;2023-11-21T06:52:14;101093.94;;;12.27;100.00
5883;BME280;2967;51.488;6.618;2023-11-21T06:57:18;101115.59;;;12.21;100.00
5883;BME280;2967;51.488;6.618;2023-11-21T07:02:21;101123.34;;;12.24;100.00
5883;BME280;2967;51.488;6.618;2023-11-21T07:07:25;101133.06;;;12.11;100.00
5883;BME280;2967;51.488;6.618;2023-11-21T07:12:28;101139.03;;;12.15;100.00
5883;BME280;2967;51.488;6.618;2023-11-21T07:17:31;101141.91;;;12.24;100.00
5883;BME280;2967;51.488;6.618;2023-11-21T07:22:35;101143.69;;;12.11;100.00
5883;BME280;2967;51.488;6.618;2023-11-21T07:27:38;101139.03;;;12.27;100.00
5883;BME280;2967;51.488;6.618;2023-11-21T07:32:41;101146.91;;;12.29;100.00
5883;BME280;2967;51.488;6.618;2023-11-21T07:37:45;101109.81;;;12.02;100.00
5883;BME280;2967;51.488;6.618;2023-11-21T07:42:50;101167.88;;;12.46;100.00
5883;BME280;2967;51.488;6.618;2023-11-21T07:47:53;101181.97;;;12.34;100.00
5883;BME280;2967;51.488;6.618;2023-11-21T07:52:59;101112.81;;;12.10;100.00
5883;BME280;2967;51.488;6.618;2023-11-21T07:58:02;101199.13;;;12.67;100.00
5883;BME280;2967;51.488;6.618;2023-11-21T08:03:05;101201.09;;;12.90;100.00
5883;BME280;2967;51.488;6.618;2023-11-21T08:08:10;101211.38;;;12.82;100.00
5883;BME280;2967;51.488;6.618;2023-11-21T08:13:13;101219.09;;;12.60;100.00
5883;BME280;2967;51.488;6.618;2023-11-21T08:18:17;101134.72;;;12.00;100.00
5883;BME280;2967;51.488;6.618;2023-11-21T08:23:21;101196.81;;;12.36;100.00
5883;BME280;2967;51.488;6.618;2023-11-21T08:28:26;101233.94;;;12.36;100.00
5883;BME280;2967;51.488;6.618;2023-11-21T08:33:29;101237.69;;;12.46;100.00
5883;BME280;2967;51.488;6.618;2023-11-21T08:38:36;101247.84;;;12.54;100.00
5883;BME280;2967;51.488;6.618;2023-11-21T08:43:39;101245.22;;;12.66;100.00
5883;BME280;2967;51.488;6.618;2023-11-21T08:48:42;101256.19;;;12.74;100.00
5883;BME280;2967;51.488;6.618;2023-11-21T08:53:47;101251.97;;;12.58;100.00
5883;BME280;2967;51.488;6.618;2023-11-21T08:58:59;101271.56;;;12.96;100.00
5883;BME280;2967;51.488;6.618;2023-11-21T09:04:04;101237.38;;;12.65;100.00
5883;BME280;2967;51.488;6.618;2023-11-21T09:09:08;101283.91;;;12.97;100.00
5883;BME280;2967;51.488;6.618;2023-11-21T09:14:11;101153.16;;;12.28;100.00
5883;BME280;2967;51.488;6.618;2023-11-21T09:19:17;101304.97;;;13.12;100.00
5883;BME280;2967;51.488;6.618;2023-11-21T09:24:22;101277.47;;;12.87;100.00
5883;BME280;2967;51.488;6.618;2023-11-21T09:29:24;101223.84;;;12.55;100.00
5883;BME280;2967;51.488;6.618;2023-11-21T09:34:27;101268.13;;;12.67;100.00
5883;BME280;2967;51.488;6.618;2023-11-21T09:39:31;101319.09;;;13.13;100.00
5883;BME280;2967;51.488;6.618;2023-11-21T09:44:42;101332.63;;;13.22;100.00
5883;BME280;2967;51.488;6.618;2023-11-21T09:49:47;101294.94;;;13.03;100.00
5883;BME280;2967;51.488;6.618;2023-11-21T09:54:53;101330.81;;;13.35;100.00
5883;BME280;2967;51.488;6.618;2023-11-21T10:00:01;101320.94;;;13.24;100.00
5883;BME280;2967;51.488;6.618;2023-11-21T10:05:07;101336.47;;;13.43;100.00
5883;BME280;2967;51.488;6.618;2023-11-21T10:10:13;101343.09;;;13.50;100.00
5883;BME280;2967;51.488;6.618;2023-11-21T10:15:21;101336.75;;;13.26;100.00
5883;BME280;2967;51.488;6.618;2023-11-21T10:20:24;101324.81;;;13.45;100.00
5883;BME280;2967;51.488;6.618;2023-11-21T10:25:29;101354.81;;;13.60;100.00
5883;BME280;2967;51.488;6.618;2023-11-21T10:30:32;101335.84;;;13.39;100.00
5883;BME280;2967;51.488;6.618;2023-11-21T10:35:45;101365.19;;;13.50;100.00
5883;BME280;2967;51.488;6.618;2023-11-21T10:40:54;101369.78;;;13.61;100.00
5883;BME280;2967;51.488;6.618;2023-11-21T10:45:58;101282.34;;;13.19;100.00
5883;BME280;2967;51.488;6.618;2023-11-21T10:51:06;101324.81;;;13.58;100.00
5883;BME280;2967;51.488;6.618;2023-11-21T10:56:13;101380.88;;;13.80;100.00
5883;BME280;2967;51.488;6.618;2023-11-21T11:01:19;101390.34;;;13.84;100.00
5883;BME280;2967;51.488;6.618;2023-11-21T11:06:24;101398.94;;;13.75;100.00
5883;BME280;2967;51.488;6.618;2023-11-21T11:11:30;101394.91;;;13.82;100.00
5883;BME280;2967;51.488;6.618;2023-11-21T11:16:32;101398.94;;;13.75;100.00
5883;BME280;2967;51.488;6.618;2023-11-21T11:21:44;101396.28;;;13.75;100.00
5883;BME280;2967;51.488;6.618;2023-11-21T11:26:57;101327.44;;;13.33;100.00
5883;BME280;2967;51.488;6.618;2023-11-21T11:32:12;101402.50;;;13.88;100.00
5883;BME280;2967;51.488;6.618;2023-11-21T11:37:17;101403.22;;;13.77;100.00
5883;BME280;2967;51.488;6.618;2023-11-21T11:42:22;101416.06;;;13.71;100.00
5883;BME280;2967;51.488;6.618;2023-11-21T11:53:22;101389.88;;;13.65;100.00
5883;BME280;2967;51.488;6.618;2023-11-21T11:58:37;101422.44;;;13.68;100.00
5883;BME280;2967;51.488;6.618;2023-11-21T12:03:40;101203.63;;;12.40;100.00
5883;BME280;2967;51.488;6.618;2023-11-21T12:08:43;101416.91;;;13.71;100.00
5883;BME280;2967;51.488;6.618;2023-11-21T12:13:48;101392.63;;;13.51;100.00
5883;BME280;2967;51.488;6.618;2023-11-21T12:18:53;101423.00;;;13.86;100.00
5883;BME280;2967;51.488;6.618;2023-11-21T12:23:57;101381.34;;;13.47;100.00
5883;BME280;2967;51.488;6.618;2023-11-21T12:29:06;101419.75;;;13.56;100.00
5883;BME280;2967;51.488;6.618;2023-11-21T12:34:12;101432.13;;;13.69;100.00
5883;BME280;2967;51.488;6.618;2023-11-21T12:39:15;101462.22;;;13.82;100.00
5883;BME280;2967;51.488;6.618;2023-11-21T12:44:22;101422.19;;;13.46;100.00
5883;BME280;2967;51.488;6.618;2023-11-21T12:49:27;101457.69;;;13.84;100.00
5883;BME280;2967;51.488;6.618;2023-11-21T12:54:30;101405.97;;;13.37;100.00
5883;BME280;2967;51.488;6.618;2023-11-21T12:59:34;101469.38;;;13.82;100.00
5883;BME280;2967;51.488;6.618;2023-11-21T13:04:37;101474.25;;;13.75;100.00
5883;BME280;2967;51.488;6.618;2023-11-21T13:09:41;101478.19;;;13.70;100.00
5883;BME280;2967;51.488;6.618;2023-11-21T13:14:46;101491.13;;;13.62;100.00
5883;BME280;2967;51.488;6.618;2023-11-21T13:19:51;101490.13;;;13.50;100.00
5883;BME280;2967;51.488;6.618;2023-11-21T13:24:56;101496.09;;;13.54;100.00
5883;BME280;2967;51.488;6.618;2023-11-21T13:30:00;101499.00;;;13.63;100.00
5883;BME280;2967;51.488;6.618;2023-11-21T13:35:03;101436.22;;;13.22;100.00
5883;BME280;2967;51.488;6.618;2023-11-21T13:40:10;101496.66;;;13.59;100.00
5883;BME280;2967;51.488;6.618;2023-11-21T13:45:17;101507.06;;;13.62;100.00
5883;BME280;2967;51.488;6.618;2023-11-21T13:50:22;101472.16;;;13.54;100.00
5883;BME280;2967;51.488;6.618;2023-11-21T13:55:26;101521.09;;;13.90;100.00
5883;BME280;2967;51.488;6.618;2023-11-21T14:00:30;101469.41;;;13.55;100.00
5883;BME280;2967;51.488;6.618;2023-11-21T14:05:45;101534.69;;;13.86;100.00
5883;BME280;2967;51.488;6.618;2023-11-21T14:10:52;101539.91;;;13.87;100.00
5883;BME280;2967;51.488;6.618;2023-11-21T14:16:00;101520.16;;;13.65;100.00
5883;BME280;2967;51.488;6.618;2023-11-21T14:21:04;101519.66;;;13.46;100.00
5883;BME280;2967;51.488;6.618;2023-11-21T14:26:11;101538.38;;;13.71;100.00
5883;BME280;2967;51.488;6.618;2023-11-21T14:31:19;101501.31;;;13.55;100.00
5883;BME280;2967;51.488;6.618;2023-11-21T14:36:22;101524.53;;;13.66;100.00
5883;BME280;2967;51.488;6.618;2023-11-21T14:41:27;101568.22;;;13.88;100.00
5883;BME280;2967;51.488;6.618;2023-11-21T14:46:31;101592.22;;;13.74;100.00
5883;BME280;2967;51.488;6.618;2023-11-21T14:51:36;101580.72;;;13.74;100.00
5883;BME280;2967;51.488;6.618;2023-11-21T14:56:59;101585.44;;;13.83;100.00
5883;BME280;2967;51.488;6.618;2023-11-21T15:02:03;101606.72;;;13.83;100.00
5883;BME280;2967;51.488;6.618;2023-11-21T15:07:19;101608.31;;;13.59;100.00
5883;BME280;2967;51.488;6.618;2023-11-21T15:12:30;101607.38;;;13.46;100.00
5883;BME280;2967;51.488;6.618;2023-11-21T15:17:39;101591.91;;;13.38;100.00
5883;BME280;2967;51.488;6.618;2023-11-21T15:22:45;101565.91;;;13.29;100.00
5883;BME280;2967;51.488;6.618;2023-11-21T15:27:47;101616.66;;;13.53;100.00
5883;BME280;2967;51.488;6.618;2023-11-21T15:32:52;101649.19;;;13.70;100.00
5883;BME280;2967;51.488;6.618;2023-11-21T15:37:55;101657.16;;;13.84;100.00
5883;BME280;2967;51.488;6.618;2023-11-21T15:43:01;101665.09;;;13.58;100.00
5883;BME280;2967;51.488;6.618;2023-11-21T15:48:07;101666.78;;;13.59;100.00
5883;BME280;2967;51.488;6.618;2023-11-21T15:53:11;101675.91;;;13.55;100.00
5883;BME280;2967;51.488;6.618;2023-11-21T15:58:23;101644.00;;;13.27;100.00
5883;BME280;2967;51.488;6.618;2023-11-21T16:03:28;101715.59;;;13.58;100.00
5883;BME280;2967;51.488;6.618;2023-11-21T16:08:35;101719.16;;;13.01;100.00
5883;BME280;2967;51.488;6.618;2023-11-21T16:13:38;101689.19;;;12.99;100.00
5883;BME280;2967;51.488;6.618;2023-11-21T16:18:43;101755.13;;;13.07;100.00
5883;BME280;2967;51.488;6.618;2023-11-21T16:23:46;101768.88;;;12.99;100.00
5883;BME280;2967;51.488;6.618;2023-11-21T16:28:49;101778.81;;;12.80;100.00
5883;BME280;2967;51.488;6.618;2023-11-21T16:33:53;101765.88;;;12.74;100.00
5883;BME280;2967;51.488;6.618;2023-11-21T16:38:58;101793.16;;;12.92;100.00
5883;BME280;2967;51.488;6.618;2023-11-21T16:44:01;101821.38;;;12.79;100.00
5883;BME280;2967;51.488;6.618;2023-11-21T16:49:05;101824.28;;;12.74;100.00
5883;BME280;2967;51.488;6.618;2023-11-21T16:54:08;101840.41;;;12.56;100.00
5883;BME280;2967;51.488;6.618;2023-11-21T16:59:12;101843.50;;;12.33;100.00
5883;BME280;2967;51.488;6.618;2023-11-21T17:04:20;101867.81;;;12.56;100.00
5883;BME280;2967;51.488;6.618;2023-11-21T17:09:24;101833.03;;;12.14;100.00
5883;BME280;2967;51.488;6.618;2023-11-21T17:14:28;101892.50;;;12.10;100.00
5883;BME280;2967;51.488;6.618;2023-11-21T17:19:32;101893.63;;;12.22;100.00
5883;BME280;2967;51.488;6.618;2023-11-21T17:24:36;101907.72;;;11.22;100.00
5883;BME280;2967;51.488;6.618;2023-11-21T17:29:48;101899.00;;;11.20;100.00
5883;BME280;2967;51.488;6.618;2023-11-21T17:34:55;101903.84;;;11.46;100.00
5883;BME280;2967;51.488;6.618;2023-11-21T17:40:01;101858.94;;;11.09;100.00
5883;BME280;2967;51.488;6.618;2023-11-21T17:45:09;101943.97;;;11.38;100.00
5883;BME280;2967;51.488;6.618;2023-11-21T17:50:23;101906.56;;;11.44;100.00
5883;BME280;2967;51.488;6.618;2023-11-21T17:55:28;101960.31;;;11.65;100.00
5883;BME280;2967;51.488;6.618;2023-11-21T18:06:31;101624.84;;;9.59;100.00
5883;BME280;2967;51.488;6.618;2023-11-21T18:11:43;101997.41;;;11.46;100.00
5883;BME280;2967;51.488;6.618;2023-11-21T18:16:45;102008.00;;;11.29;100.00
5883;BME280;2967;51.488;6.618;2023-11-21T18:21:58;102003.91;;;11.59;100.00
5883;BME280;2967;51.488;6.618;2023-11-21T18:27:03;102020.19;;;11.69;100.00
5883;BME280;2967;51.488;6.618;2023-11-21T18:32:07;101949.28;;;11.38;100.00
5883;BME280;2967;51.488;6.618;2023-11-21T18:37:20;101996.38;;;11.32;100.00
5883;BME280;2967;51.488;6.618;2023-11-21T18:42:30;102026.28;;;11.17;100.00
5883;BME280;2967;51.488;6.618;2023-11-21T18:47:32;102029.91;;;11.14;100.00
5883;BME280;2967;51.488;6.618;2023-11-21T18:52:37;101963.78;;;10.77;100.00
5883;BME280;2967;51.488;6.618;2023-11-21T18:57:42;102020.41;;;11.10;100.00
5883;BME280;2967;51.488;6.618;2023-11-21T19:02:45;102031.22;;;11.06;100.00
5883;BME280;2967;51.488;6.618;2023-11-21T19:08:09;102053.09;;;11.28;100.00
5883;BME280;2967;51.488;6.618;2023-11-21T19:13:12;102059.09;;;11.50;100.00
5883;BME280;2967;51.488;6.618;2023-11-21T19:18:15;102025.06;;;11.24;100.00
5883;BME280;2967;51.488;6.618;2023-11-21T19:23:19;101940.06;;;10.74;100.00
5883;BME280;2967;51.488;6.618;2023-11-21T19:28:23;102074.38;;;11.08;100.00
5883;BME280;2967;51.488;6.618;2023-11-21T19:33:32;102031.22;;;11.06;100.00
5883;BME280;2967;51.488;6.618;2023-11-21T19:38:47;102059.13;;;11.31;100.00
5883;BME280;2967;51.488;6.618;2023-11-21T19:43:50;102097.44;;;11.43;100.00
5883;BME280;2967;51.488;6.618;2023-11-21T19:48:56;102106.66;;;11.16;100.00
5883;BME280;2967;51.488;6.618;2023-11-21T19:54:00;102033.63;;;10.73;100.00
5883;BME280;2967;51.488;6.618;2023-11-21T19:59:02;102132.06;;;11.20;100.00
5883;BME280;2967;51.488;6.618;2023-11-21T20:04:05;102134.38;;;11.27;100.00
5883;BME280;2967;51.488;6.618;2023-11-21T20:09:12;102138.03;;;11.25;100.00
5883;BME280;2967;51.488;6.618;2023-11-21T20:14:16;102137.25;;;11.23;100.00
5883;BME280;2967;51.488;6.618;2023-11-21T20:19:19;102099.78;;;10.73;100.00
5883;BME280;2967;51.488;6.618;2023-11-21T20:24:29;102072.31;;;10.57;100.00
5883;BME280;2967;51.488;6.618;2023-11-21T20:29:34;102086.19;;;10.62;100.00
5883;BME280;2967;51.488;6.618;2023-11-21T20:34:38;102184.72;;;11.27;100.00
5883;BME280;2967;51.488;6.618;2023-11-21T20:39:42;102195.31;;;11.27;100.00
5883;BME280;2967;51.488;6.618;2023-11-21T20:44:50;102187.94;;;11.34;100.00
5883;BME280;2967;51.488;6.618;2023-11-21T20:49:53;102068.00;;;10.55;100.00
5883;BME280;2967;51.488;6.618;2023-11-21T20:55:01;102189.75;;;11.32;100.00
5883;BME280;2967;51.488;6.618;2023-11-21T21:00:05;102117.91;;;10.82;100.00
5883;BME280;2967;51.488;6.618;2023-11-21T21:05:11;102195.72;;;11.18;100.00
5883;BME280;2967;51.488;6.618;2023-11-21T21:10:26;102144.75;;;10.93;100.00
5883;BME280;2967;51.488;6.618;2023-11-21T21:15:34;102196.91;;;11.11;100.00
5883;BME280;2967;51.488;6.618;2023-11-21T21:20:37;102203.03;;;11.12;100.00
5883;BME280;2967;51.488;6.618;2023-11-21T21:25:41;102146.78;;;10.88;100.00
5883;BME280;2967;51.488;6.618;2023-11-21T21:30:45;102214.91;;;11.42;100.00
5883;BME280;2967;51.488;6.618;2023-11-21T21:35:48;102246.41;;;11.29;100.00
5883;BME280;2967;51.488;6.618;2023-11-21T21:40:52;102251.44;;;10.95;100.00
5883;BME280;2967;51.488;6.618;2023-11-21T21:45:56;102266.94;;;11.04;100.00
5883;BME280;2967;51.488;6.618;2023-11-21T21:50:59;102268.59;;;11.07;100.00
5883;BME280;2967;51.488;6.618;2023-11-21T21:56:08;102264.81;;;11.32;100.00
5883;BME280;2967;51.488;6.618;2023-11-21T22:01:12;102255.53;;;11.42;100.00
5883;BME280;2967;51.488;6.618;2023-11-21T22:06:18;102273.44;;;11.37;100.00
5883;BME280;2967;51.488;6.618;2023-11-21T22:11:22;102276.88;;;11.39;100.00
5883;BME280;2967;51.488;6.618;2023-11-21T22:16:25;102285.81;;;11.37;100.00
5883;BME280;2967;51.488;6.618;2023-11-21T22:21:31;102272.09;;;10.67;100.00
5883;BME280;2967;51.488;6.618;2023-11-21T22:26:42;102285.16;;;11.12;100.00
5883;BME280;2967;51.488;6.618;2023-11-21T22:31:45;102206.00;;;10.66;100.00
5883;BME280;2967;51.488;6.618;2023-11-21T22:36:56;102289.41;;;10.96;100.00
5883;BME280;2967;51.488;6.618;2023-11-21T22:42:01;101926.41;;;8.64;100.00
5883;BME280;2967;51.488;6.618;2023-11-21T22:47:05;102169.47;;;10.13;100.00
5883;BME280;2967;51.488;6.618;2023-11-21T22:52:08;102064.31;;;9.56;100.00
5883;BME280;2967;51.488;6.618;2023-11-21T22:57:12;102308.38;;;11.25;100.00
5883;BME280;2967;51.488;6.618;2023-11-21T23:02:15;102334.31;;;10.56;100.00
5883;BME280;2967;51.488;6.618;2023-11-21T23:07:20;102297.44;;;10.09;100.00
5883;BME280;2967;51.488;6.618;2023-11-21T23:12:30;102357.56;;;10.48;100.00
5883;BME280;2967;51.488;6.618;2023-11-21T23:17:33;102357.09;;;10.39;100.00
5883;BME280;2967;51.488;6.618;2023-11-21T23:22:36;102153.91;;;9.39;100.00
5883;BME280;2967;51.488;6.618;2023-11-21T23:27:41;102365.75;;;10.63;100.00
5883;BME280;2967;51.488;6.618;2023-11-21T23:32:45;102372.78;;;10.86;100.00
5883;BME280;2967;51.488;6.618;2023-11-21T23:37:49;102368.09;;;10.49;100.00
5883;BME280;2967;51.488;6.618;2023-11-21T23:42:53;102377.66;;;10.31;100.00
5883;BME280;2967;51.488;6.618;2023-11-21T23:47:56;102004.22;;;8.03;100.00
5883;BME280;2967;51.488;6.618;2023-11-21T23:52:59;102370.97;;;10.43;100.00
5883;BME280;2967;51.488;6.618;2023-11-21T23:58:05;102332.09;;;10.24;100.00
